Time;durP1;ratioP1;P1;durP2;ratioP2;P2;SDS_P1;SDS_P2;PMS_P1;PMS_P2;Temp;Humidity;BMP_temperature;BMP_pressure;BME280_temperature;BME280_humidity;BME280_pressure;Samples;Min_cycle;Max_cycle;Signal;HPM_P1;HPM_P2
2022/01/19 00:01:21;;;;;;;36.28;21.80;;;7.30;99.90;;;;;;4949018;29;20094;-68
2022/01/19 00:03:47;;;;;;;39.45;21.77;;;7.30;99.90;;;;;;4949252;29;20028;-68
2022/01/19 00:06:13;;;;;;;37.28;20.90;;;7.30;99.90;;;;;;4949246;28;20047;-68
2022/01/19 00:08:39;;;;;;;39.13;21.73;;;7.30;99.90;;;;;;4952742;29;20406;-68
2022/01/19 00:11:05;;;;;;;41.45;22.58;;;7.30;99.90;;;;;;4954887;28;20109;-68
2022/01/19 00:13:31;;;;;;;41.67;23.27;;;7.30;99.90;;;;;;4953626;28;20078;-68
2022/01/19 00:15:57;;;;;;;46.08;23.73;;;7.30;99.90;;;;;;4948837;29;20034;-68
2022/01/19 00:18:24;;;;;;;42.42;23.08;;;7.30;99.90;;;;;;4951743;28;20043;-68
2022/01/19 00:20:51;;;;;;;46.05;24.02;;;7.30;99.90;;;;;;4953364;28;20050;-68
2022/01/19 00:27:29;;;;;;;47.22;26.10;;;7.30;99.90;;;;;;4952001;29;20411;-68
2022/01/19 00:29:54;;;;;;;46.22;24.25;;;7.30;99.90;;;;;;4940261;29;20023;-68
2022/01/19 00:32:23;;;;;;;43.90;24.92;;;7.20;99.90;;;;;;4952768;29;20054;-68
2022/01/19 00:34:48;;;;;;;45.67;24.77;;;7.20;99.90;;;;;;4951938;29;20047;-68
2022/01/19 00:37:14;;;;;;;44.78;24.75;;;7.20;99.90;;;;;;4951567;29;20035;-68
2022/01/19 00:39:40;;;;;;;50.03;25.88;;;7.20;99.90;;;;;;4952403;29;20023;-69
2022/01/19 00:42:06;;;;;;;46.20;24.83;;;7.20;99.90;;;;;;4950803;29;20075;-68
2022/01/19 00:44:31;;;;;;;46.92;25.50;;;7.20;99.90;;;;;;4951731;28;20039;-67
2022/01/19 00:46:57;;;;;;;49.90;25.98;;;7.20;99.90;;;;;;4952678;29;20031;-68
2022/01/19 00:49:23;;;;;;;50.78;25.52;;;7.20;99.90;;;;;;4951620;29;20038;-68
2022/01/19 00:51:49;;;;;;;47.42;26.48;;;7.20;99.90;;;;;;4952402;29;20032;-68
2022/01/19 00:54:15;;;;;;;50.42;26.35;;;7.20;99.90;;;;;;4949865;28;20062;-68
2022/01/19 00:56:40;;;;;;;47.13;26.17;;;7.20;99.90;;;;;;4952734;28;20478;-68
2022/01/19 00:59:06;;;;;;;48.42;26.20;;;7.20;99.90;;;;;;4954277;28;20039;-68
2022/01/19 01:01:32;;;;;;;47.40;26.85;;;7.20;99.90;;;;;;4951718;28;20054;-69
2022/01/19 01:03:58;;;;;;;45.08;25.33;;;7.20;99.90;;;;;;4948701;28;20027;-68
2022/01/19 01:06:23;;;;;;;44.92;26.50;;;7.20;99.90;;;;;;4951940;29;20054;-68
2022/01/19 01:08:49;;;;;;;48.97;26.50;;;7.20;99.90;;;;;;4951457;29;20043;-68
2022/01/19 01:11:17;;;;;;;49.65;27.30;;;7.20;99.90;;;;;;4953249;28;20114;-69
2022/01/19 01:16:37;;;;;;;46.10;26.27;;;7.20;99.90;;;;;;4951227;28;20098;-69
2022/01/19 01:19:06;;;;;;;46.65;26.02;;;7.20;99.90;;;;;;4951812;28;20031;-68
2022/01/19 01:21:32;;;;;;;52.47;27.40;;;7.30;99.90;;;;;;4946870;29;20043;-68
2022/01/19 01:23:58;;;;;;;48.30;26.08;;;7.20;99.90;;;;;;4949491;28;20028;-68
2022/01/19 01:26:24;;;;;;;45.80;25.85;;;7.20;99.90;;;;;;4951798;29;20063;-68
2022/01/19 01:28:51;;;;;;;50.03;26.92;;;7.20;99.90;;;;;;4952192;29;20521;-68
2022/01/19 01:31:17;;;;;;;49.20;26.63;;;7.20;99.90;;;;;;4949378;29;20035;-68
2022/01/19 01:33:43;;;;;;;44.65;25.08;;;7.20;99.90;;;;;;4950581;28;20027;-68
2022/01/19 01:36:09;;;;;;;46.05;25.98;;;7.20;99.90;;;;;;4952047;28;20532;-68
2022/01/19 01:38:37;;;;;;;48.75;26.35;;;7.20;99.90;;;;;;4951267;28;20035;-68
2022/01/19 01:41:04;;;;;;;47.97;26.45;;;7.20;99.90;;;;;;4953165;29;20099;-68
2022/01/19 01:43:29;;;;;;;47.97;26.73;;;7.20;99.90;;;;;;4948944;28;20038;-68
2022/01/19 01:45:58;;;;;;;50.92;27.80;;;7.20;99.90;;;;;;4950229;29;20031;-68
2022/01/19 01:48:25;;;;;;;54.17;27.75;;;7.20;99.90;;;;;;4952285;29;20031;-68
2022/01/19 01:53:37;;;;;;;50.08;26.50;;;7.20;99.90;;;;;;4949490;29;20465;-68
2022/01/19 01:56:07;;;;;;;47.40;25.58;;;7.20;99.90;;;;;;4952068;29;20490;-68
2022/01/19 01:58:36;;;;;;;51.58;27.38;;;7.20;99.90;;;;;;4950329;28;20038;-68
2022/01/19 02:01:03;;;;;;;50.63;28.10;;;7.20;99.90;;;;;;4951735;28;20062;-68
2022/01/19 02:03:36;;;;;;;51.83;27.13;;;7.20;99.90;;;;;;4949958;28;20031;-68
2022/01/19 02:09:07;;;;;;;54.25;27.20;;;7.20;99.90;;;;;;4951215;28;20134;-68
2022/01/19 02:23:35;;;;;;;52.45;25.92;;;7.10;99.90;;;;;;4907092;29;20046;-68
2022/01/19 02:26:03;;;;;;;;;;;7.10;99.90;;;;;;4908299;29;20063;-69
2022/01/19 02:42:12;;;;;;;51.83;25.77;;;7.10;99.90;;;;;;4869303;29;20052;-68
2022/01/19 02:49:47;;;;;;;48.92;25.95;;;7.10;99.90;;;;;;4873514;29;20464;-68
2022/01/19 02:52:13;;;;;;;50.30;25.60;;;7.10;99.90;;;;;;4869217;29;20519;-68
2022/01/19 02:54:39;;;;;;;48.92;26.17;;;7.10;99.90;;;;;;4873290;29;20032;-68
2022/01/19 02:57:09;;;;;;;49.28;26.08;;;7.00;99.90;;;;;;4899496;29;20054;-68
2022/01/19 03:10:37;;;;;;;50.55;27.40;;;7.00;99.90;;;;;;4893610;29;20104;-68
2022/01/19 03:13:03;;;;;;;54.15;28.25;;;7.00;99.90;;;;;;4896130;29;20547;-68
2022/01/19 03:15:29;;;;;;;51.67;27.13;;;7.00;99.90;;;;;;4899699;29;20047;-68
2022/01/19 03:17:58;;;;;;;55.45;28.60;;;7.00;99.90;;;;;;4909466;29;20036;-68
2022/01/19 03:20:25;;;;;;;56.97;29.08;;;7.00;99.90;;;;;;4904558;29;20186;-68
2022/01/19 03:23:14;;;;;;;52.13;27.70;;;7.00;99.90;;;;;;4908965;29;20051;-68
2022/01/19 03:25:40;;;;;;;55.70;29.00;;;7.00;99.90;;;;;;4910701;29;20032;-68
2022/01/19 03:28:06;;;;;;;58.83;29.83;;;7.00;99.90;;;;;;4907687;29;20032;-69
2022/01/19 03:30:32;;;;;;;53.88;26.83;;;7.00;99.90;;;;;;4906758;29;20027;-68
2022/01/19 03:32:58;;;;;;;55.05;28.33;;;7.00;99.90;;;;;;4906830;29;20044;-68
2022/01/19 03:35:24;;;;;;;54.92;28.35;;;7.00;99.90;;;;;;4906130;29;20043;-68
2022/01/19 03:37:50;;;;;;;55.67;28.88;;;7.00;99.90;;;;;;4910133;29;20060;-68
2022/01/19 03:40:16;;;;;;;54.30;29.17;;;7.10;99.90;;;;;;4941736;29;20042;-68
2022/01/19 03:42:43;;;;;;;53.28;27.40;;;7.10;99.90;;;;;;4949884;28;20043;-68
2022/01/19 03:45:10;;;;;;;54.30;28.75;;;7.10;99.90;;;;;;4953785;28;20491;-68
2022/01/19 03:47:50;;;;;;;54.00;28.95;;;7.10;99.90;;;;;;4953659;28;20589;-68
2022/01/19 03:50:16;;;;;;;55.23;28.13;;;7.10;99.90;;;;;;4952103;29;20039;-68
2022/01/19 03:52:41;;;;;;;51.33;27.38;;;7.10;99.90;;;;;;4952231;29;20027;-68
2022/01/19 03:55:08;;;;;;;53.65;28.40;;;7.10;99.90;;;;;;4952968;29;20038;-68
2022/01/19 03:57:34;;;;;;;53.65;28.63;;;7.00;99.90;;;;;;4953262;28;20084;-68
2022/01/19 04:00:00;;;;;;;55.10;28.80;;;7.10;99.90;;;;;;4945571;28;20078;-68
2022/01/19 04:02:26;;;;;;;55.60;28.90;;;7.00;99.90;;;;;;4953489;28;20043;-68
2022/01/19 04:04:58;;;;;;;54.67;28.40;;;7.10;99.90;;;;;;4954590;29;20498;-68
2022/01/19 04:07:24;;;;;;;51.33;28.02;;;7.10;99.90;;;;;;4953609;28;20035;-68
2022/01/19 04:09:50;;;;;;;52.80;28.10;;;7.10;99.90;;;;;;4952156;29;20778;-68
2022/01/19 04:12:25;;;;;;;54.33;26.92;;;7.10;99.90;;;;;;4952380;28;20039;-68
2022/01/19 04:14:51;;;;;;;55.25;26.42;;;7.10;99.90;;;;;;4950245;29;20039;-69
2022/01/19 04:17:17;;;;;;;52.92;27.48;;;7.10;99.90;;;;;;4950942;29;20396;-68
2022/01/19 04:19:45;;;;;;;53.70;27.80;;;7.10;99.90;;;;;;4949220;29;20651;-68
2022/01/19 04:22:18;;;;;;;51.50;28.50;;;7.10;99.90;;;;;;4952809;28;20119;-68
2022/01/19 04:24:45;;;;;;;58.28;27.65;;;7.10;99.90;;;;;;4952639;28;20038;-68
2022/01/19 04:30:03;;;;;;;54.63;28.15;;;7.10;99.90;;;;;;4949015;28;20109;-69
2022/01/19 04:32:43;;;;;;;54.60;27.58;;;7.00;99.90;;;;;;4952954;28;20503;-68
2022/01/19 04:35:11;;;;;;;54.08;27.95;;;7.00;99.90;;;;;;4954771;29;20623;-68
2022/01/19 04:49:04;;;;;;;55.03;26.20;;;7.00;99.90;;;;;;4895710;29;20484;-69
2022/01/19 05:04:57;;;;;;;51.40;25.65;;;7.00;99.90;;;;;;4899709;29;20024;-68
2022/01/19 05:07:25;;;;;;;51.83;25.33;;;7.00;99.90;;;;;;4897810;29;20302;-67
2022/01/19 05:13:24;;;;;;;50.40;25.60;;;7.00;99.90;;;;;;4903490;29;20028;-68
2022/01/19 05:15:33;;;;;;;51.80;24.88;;;7.00;99.90;;;;;;4893852;29;20123;-70
2022/01/19 05:17:59;;;;;;;47.67;24.85;;;7.00;99.90;;;;;;4900037;29;20064;-68
2022/01/19 05:20:25;;;;;;;48.13;24.52;;;7.00;99.90;;;;;;4905319;29;20036;-69
2022/01/19 05:22:51;;;;;;;51.10;23.98;;;7.00;99.90;;;;;;4897719;29;20040;-69
2022/01/19 05:25:17;;;;;;;52.08;24.45;;;7.00;99.90;;;;;;4918448;29;20499;-69
2022/01/19 05:27:43;;;;;;;50.63;24.67;;;7.00;99.90;;;;;;4950822;29;20023;-69
2022/01/19 05:30:09;;;;;;;49.15;24.55;;;7.00;99.90;;;;;;4951411;28;20023;-68
2022/01/19 05:32:35;;;;;;;56.13;25.10;;;7.00;99.90;;;;;;4951926;28;20098;-69
2022/01/19 05:35:01;;;;;;;49.85;24.08;;;7.00;99.90;;;;;;4952880;28;20035;-68
2022/01/19 05:37:27;;;;;;;46.80;24.05;;;7.10;99.90;;;;;;4950203;28;20066;-68
2022/01/19 05:39:53;;;;;;;48.67;24.83;;;7.00;99.90;;;;;;4950937;28;20054;-68
2022/01/19 05:42:19;;;;;;;52.28;24.58;;;7.00;99.90;;;;;;4945732;28;20071;-67
2022/01/19 05:44:48;;;;;;;50.15;23.15;;;7.00;99.90;;;;;;4951962;28;20020;-68
2022/01/19 05:47:14;;;;;;;49.67;23.48;;;7.10;99.90;;;;;;4948660;29;20518;-68
2022/01/19 05:49:44;;;;;;;48.17;23.25;;;7.00;99.90;;;;;;4952087;28;20510;-67
2022/01/19 05:52:11;;;;;;;50.92;23.67;;;7.00;99.90;;;;;;4949503;29;20471;-68
2022/01/19 05:54:37;;;;;;;47.80;23.52;;;7.00;99.90;;;;;;4951576;29;20031;-68
2022/01/19 05:57:03;;;;;;;47.67;23.75;;;7.00;99.90;;;;;;4950111;28;20023;-69
2022/01/19 05:59:29;;;;;;;52.45;23.00;;;7.00;99.90;;;;;;4951183;28;20027;-69
2022/01/19 06:01:57;;;;;;;46.85;23.17;;;7.00;99.90;;;;;;4951702;29;20039;-69
2022/01/19 06:04:23;;;;;;;49.72;23.20;;;7.00;99.90;;;;;;4949306;28;20031;-70
2022/01/19 06:06:55;;;;;;;53.17;23.15;;;7.00;99.90;;;;;;4945979;28;20057;-68
2022/01/19 06:09:33;;;;;;;48.38;23.08;;;7.00;99.90;;;;;;4950533;28;20122;-67
2022/01/19 06:12:05;;;;;;;46.92;23.33;;;7.00;99.90;;;;;;4949878;29;20114;-67
2022/01/19 06:14:32;;;;;;;47.30;22.55;;;7.00;99.90;;;;;;4948628;28;20114;-65
2022/01/19 06:16:58;;;;;;;48.97;22.25;;;7.00;99.90;;;;;;4949661;28;20031;-67
2022/01/19 06:19:25;;;;;;;47.38;21.85;;;7.00;99.90;;;;;;4951118;28;20031;-67
2022/01/19 06:21:51;;;;;;;48.83;22.25;;;7.00;99.90;;;;;;4950485;28;20085;-68
2022/01/19 06:24:17;;;;;;;44.58;21.80;;;7.00;99.90;;;;;;4950201;29;20034;-68
2022/01/19 06:26:43;;;;;;;45.15;21.88;;;7.00;99.90;;;;;;4949783;28;20044;-68
2022/01/19 06:29:08;;;;;;;44.47;21.70;;;7.00;99.90;;;;;;4952213;28;20037;-68
2022/01/19 06:31:34;;;;;;;45.97;21.77;;;7.00;99.90;;;;;;4949695;28;20032;-68
2022/01/19 06:34:00;;;;;;;45.90;21.73;;;7.00;99.90;;;;;;4951487;28;20062;-68
2022/01/19 06:36:26;;;;;;;44.53;21.08;;;7.00;99.90;;;;;;4949322;28;20031;-68
2022/01/19 06:38:52;;;;;;;43.85;21.10;;;7.00;99.90;;;;;;4949601;28;20023;-68
2022/01/19 06:41:18;;;;;;;46.75;21.25;;;7.00;99.90;;;;;;4952210;28;20074;-68
2022/01/19 06:43:44;;;;;;;46.88;21.40;;;7.00;99.90;;;;;;4949912;29;20037;-68
2022/01/19 06:46:10;;;;;;;47.42;21.67;;;7.00;99.90;;;;;;4950854;29;20035;-68
2022/01/19 06:48:36;;;;;;;44.88;20.30;;;7.00;99.90;;;;;;4947735;28;20098;-67
2022/01/19 06:52:13;;;;;;;42.22;21.05;;;7.00;99.90;;;;;;5061675;28;20432;-66
2022/01/19 06:54:38;;;;;;;43.88;21.67;;;7.00;99.90;;;;;;5059223;28;20099;-66
2022/01/19 06:57:04;;;;;;;45.55;21.77;;;7.00;99.90;;;;;;5055827;28;20500;-67
2022/01/19 06:59:30;;;;;;;48.47;21.38;;;7.00;99.90;;;;;;5062295;28;20515;-67
2022/01/19 07:01:56;;;;;;;44.95;22.17;;;7.00;99.90;;;;;;5059294;28;20063;-67
2022/01/19 07:04:22;;;;;;;46.08;22.08;;;7.00;99.90;;;;;;5058760;28;20039;-67
2022/01/19 07:06:47;;;;;;;49.45;22.00;;;7.00;99.90;;;;;;5056582;28;20100;-66
2022/01/19 07:09:13;;;;;;;47.80;21.67;;;7.00;99.90;;;;;;5062231;28;20450;-66
2022/01/19 07:11:39;;;;;;;49.83;22.10;;;7.00;99.90;;;;;;5049854;28;20051;-66
2022/01/19 07:14:05;;;;;;;47.92;22.20;;;7.00;99.90;;;;;;5053804;28;20067;-66
2022/01/19 07:16:31;;;;;;;48.45;22.20;;;7.00;99.90;;;;;;5058285;28;20045;-66
2022/01/19 07:18:57;;;;;;;48.28;22.08;;;7.10;99.90;;;;;;5051659;28;20017;-66
2022/01/19 07:21:23;;;;;;;52.90;22.50;;;7.10;99.90;;;;;;5061429;28;20017;-66
2022/01/19 07:23:49;;;;;;;48.38;22.27;;;7.10;99.90;;;;;;5056570;28;20051;-67
2022/01/19 07:26:15;;;;;;;46.75;21.42;;;7.10;99.90;;;;;;5063368;28;20067;-67
2022/01/19 07:28:41;;;;;;;46.35;22.38;;;7.10;99.90;;;;;;5052540;28;20439;-66
2022/01/19 07:31:07;;;;;;;51.58;22.25;;;7.10;99.90;;;;;;5057086;28;20117;-66
2022/01/19 07:33:32;;;;;;;46.72;21.88;;;7.10;99.90;;;;;;5054714;28;20033;-67
2022/01/19 07:35:58;;;;;;;47.72;21.42;;;7.10;99.90;;;;;;5061976;28;20108;-67
2022/01/19 07:38:26;;;;;;;47.30;21.85;;;7.10;99.90;;;;;;5051749;28;20048;-67
2022/01/19 07:40:52;;;;;;;47.45;23.15;;;7.10;99.90;;;;;;5053463;28;20400;-67
2022/01/19 07:43:18;;;;;;;52.28;23.98;;;7.10;99.90;;;;;;5051694;28;20087;-66
2022/01/19 07:45:44;;;;;;;53.92;25.10;;;7.10;99.90;;;;;;5052713;28;20416;-67
2022/01/19 07:48:10;;;;;;;49.88;23.13;;;7.10;99.90;;;;;;5056075;28;20033;-66
2022/01/19 07:50:37;;;;;;;52.80;24.00;;;7.10;99.90;;;;;;5051365;28;20041;-65
2022/01/19 07:53:03;;;;;;;58.20;24.35;;;7.10;99.90;;;;;;5061177;28;20340;-66
2022/01/19 07:55:29;;;;;;;55.72;25.02;;;7.10;99.90;;;;;;5056522;28;20033;-66
2022/01/19 07:57:55;;;;;;;57.53;25.10;;;7.20;99.90;;;;;;5058401;28;20444;-66
2022/01/19 08:00:21;;;;;;;52.22;24.23;;;7.20;99.90;;;;;;5055555;28;20035;-66
2022/01/19 08:02:49;;;;;;;45.10;21.95;;;7.20;99.90;;;;;;5049468;28;20052;-66
2022/01/19 08:05:18;;;;;;;46.65;22.25;;;7.20;99.90;;;;;;5039582;28;20565;-66
2022/01/19 08:07:44;;;;;;;48.13;22.67;;;7.20;99.90;;;;;;5048892;28;20079;-68
2022/01/19 08:10:12;;;;;;;44.40;20.45;;;7.20;99.90;;;;;;5039625;28;20503;-68
2022/01/19 08:12:37;;;;;;;48.65;21.25;;;7.20;99.90;;;;;;5037613;28;20056;-67
2022/01/19 08:15:05;;;;;;;50.80;21.33;;;7.20;99.90;;;;;;5038340;28;20057;-67
2022/01/19 08:17:31;;;;;;;43.70;20.58;;;7.20;99.90;;;;;;5043231;28;20033;-67
2022/01/19 08:19:58;;;;;;;43.25;20.45;;;7.20;99.90;;;;;;5040478;28;20496;-67
2022/01/19 08:22:24;;;;;;;45.45;20.17;;;7.20;99.90;;;;;;5037390;28;20040;-67
2022/01/19 08:24:50;;;;;;;45.45;19.92;;;7.20;99.90;;;;;;5044526;28;20022;-67
2022/01/19 08:27:16;;;;;;;44.88;20.35;;;7.30;99.90;;;;;;5041265;28;20108;-67
2022/01/19 08:29:41;;;;;;;40.47;20.08;;;7.20;99.90;;;;;;5042316;28;20045;-67
2022/01/19 08:32:09;;;;;;;44.38;20.08;;;7.30;99.90;;;;;;5043463;28;20068;-67
2022/01/19 08:34:35;;;;;;;40.97;19.45;;;7.30;99.90;;;;;;5039191;28;20021;-67
2022/01/19 08:37:01;;;;;;;43.22;19.85;;;7.30;99.90;;;;;;5040245;28;20037;-67
2022/01/19 08:39:27;;;;;;;42.13;20.10;;;7.30;99.90;;;;;;5042410;28;20021;-66
2022/01/19 08:41:54;;;;;;;43.75;20.42;;;7.30;99.90;;;;;;5042394;28;20022;-67
2022/01/19 08:44:21;;;;;;;45.10;20.88;;;7.30;99.90;;;;;;5043794;28;20488;-67
2022/01/19 08:46:47;;;;;;;42.40;20.35;;;7.30;99.90;;;;;;5045428;28;20051;-66
2022/01/19 08:49:13;;;;;;;41.58;20.25;;;7.30;99.90;;;;;;5044584;28;20044;-67
2022/01/19 08:51:39;;;;;;;41.78;20.15;;;7.30;99.90;;;;;;5043593;28;20559;-66
2022/01/19 08:54:05;;;;;;;39.88;20.85;;;7.30;99.90;;;;;;5039475;28;20071;-67
2022/01/19 08:56:31;;;;;;;42.22;20.35;;;7.40;99.90;;;;;;5043548;28;20064;-66
2022/01/19 08:58:57;;;;;;;44.75;20.73;;;7.40;99.90;;;;;;5051185;28;20028;-65
2022/01/19 09:01:23;;;;;;;43.53;21.15;;;7.40;99.90;;;;;;5044869;28;20128;-65
2022/01/19 09:03:49;;;;;;;43.70;21.23;;;7.40;99.90;;;;;;5038917;28;20024;-65
2022/01/19 09:06:15;;;;;;;45.15;21.17;;;7.50;99.90;;;;;;5041132;28;20025;-66
2022/01/19 09:08:41;;;;;;;39.70;20.27;;;7.50;99.90;;;;;;5041682;28;20112;-66
2022/01/19 09:11:07;;;;;;;41.45;20.52;;;7.60;99.90;;;;;;5040698;28;20048;-66
2022/01/19 09:13:34;;;;;;;41.95;20.48;;;7.60;99.90;;;;;;5039026;28;20489;-66
2022/01/19 09:16:00;;;;;;;46.95;20.58;;;7.70;99.90;;;;;;5036365;28;20033;-66
2022/01/19 09:18:26;;;;;;;45.03;21.80;;;7.80;99.90;;;;;;5046849;28;20033;-66
2022/01/19 09:20:52;;;;;;;50.63;22.05;;;7.80;99.90;;;;;;5039234;28;20048;-66
2022/01/19 09:23:18;;;;;;;47.25;22.40;;;7.80;99.90;;;;;;5044208;28;20443;-66
2022/01/19 09:25:43;;;;;;;47.53;21.40;;;7.80;99.90;;;;;;5036985;28;20029;-66
2022/01/19 09:28:10;;;;;;;47.17;21.77;;;7.80;99.90;;;;;;5040326;28;20029;-66
2022/01/19 09:30:37;;;;;;;45.42;22.58;;;7.80;99.90;;;;;;5039447;28;20416;-66
2022/01/19 09:33:08;;;;;;;45.75;21.58;;;7.80;99.90;;;;;;5034883;28;20032;-66
2022/01/19 09:35:52;;;;;;;48.05;22.88;;;7.90;99.90;;;;;;5036740;28;20037;-66
2022/01/19 09:38:19;;;;;;;40.28;21.17;;;7.90;99.90;;;;;;5038157;28;20049;-66
2022/01/19 09:40:46;;;;;;;42.95;22.17;;;8.00;99.90;;;;;;5044804;28;20043;-66
2022/01/19 09:43:11;;;;;;;45.13;22.00;;;8.10;99.90;;;;;;5042019;28;20025;-66
2022/01/19 09:45:37;;;;;;;46.95;22.85;;;8.10;99.90;;;;;;5039057;28;20029;-66
2022/01/19 09:48:05;;;;;;;41.95;21.38;;;8.10;99.90;;;;;;5045436;28;20028;-66
2022/01/19 09:50:31;;;;;;;44.72;22.45;;;8.20;99.90;;;;;;5044905;28;20073;-66
2022/01/19 09:52:57;;;;;;;44.78;22.20;;;8.20;99.90;;;;;;5045064;28;20033;-66
2022/01/19 09:55:23;;;;;;;42.20;21.55;;;8.20;99.90;;;;;;5034592;28;20025;-67
2022/01/19 09:57:48;;;;;;;40.92;20.75;;;8.20;99.90;;;;;;5036721;28;20025;-67
2022/01/19 10:00:16;;;;;;;42.45;21.23;;;8.20;99.90;;;;;;5034240;28;20029;-66
2022/01/19 10:02:42;;;;;;;41.97;21.13;;;8.20;99.90;;;;;;5038548;28;20022;-66
2022/01/19 10:05:09;;;;;;;40.38;21.30;;;8.10;99.90;;;;;;5038816;28;20518;-66
2022/01/19 10:07:35;;;;;;;43.10;21.58;;;8.20;99.90;;;;;;5049450;28;20037;-67
2022/01/19 10:10:07;;;;;;;40.20;20.27;;;8.20;99.90;;;;;;5034463;28;20078;-67
2022/01/19 10:18:18;;;;;;;41.00;20.40;;;8.10;99.90;;;;;;5044539;28;20514;-67
2022/01/19 10:20:47;;;;;;;42.95;20.85;;;8.20;99.90;;;;;;5040435;28;20276;-67
2022/01/19 10:23:35;;;;;;;44.80;23.42;;;8.20;99.90;;;;;;5038900;28;20036;-66
2022/01/19 10:26:02;;;;;;;38.40;20.02;;;8.30;99.90;;;;;;5037524;28;20121;-66
2022/01/19 10:28:28;;;;;;;37.55;18.85;;;8.30;99.90;;;;;;5042225;28;20021;-67
2022/01/19 10:30:53;;;;;;;38.78;19.45;;;8.40;99.90;;;;;;5038074;28;20041;-67
2022/01/19 10:33:21;;;;;;;40.92;20.30;;;8.60;99.90;;;;;;5042547;28;20095;-67
2022/01/19 10:35:49;;;;;;;41.63;20.85;;;8.70;99.90;;;;;;5037169;28;20029;-67
2022/01/19 10:38:17;;;;;;;40.20;19.23;;;8.70;99.90;;;;;;5042440;28;20103;-67
2022/01/19 10:41:04;;;;;;;39.83;19.42;;;8.80;99.90;;;;;;5035071;28;20080;-66
2022/01/19 10:43:41;;;;;;;39.00;18.73;;;8.80;99.90;;;;;;5043293;28;20025;-66
2022/01/19 10:46:16;;;;;;;34.30;18.50;;;8.80;99.90;;;;;;5034615;28;20033;-66
2022/01/19 10:48:43;;;;;;;37.50;18.13;;;8.70;99.90;;;;;;5032857;28;20135;-66
2022/01/19 10:51:16;;;;;;;39.75;19.60;;;8.70;99.90;;;;;;5038630;28;20045;-67
2022/01/19 10:54:04;;;;;;;40.85;19.25;;;8.70;99.90;;;;;;5041602;28;20035;-66
2022/01/19 10:56:32;;;;;;;36.53;18.92;;;8.70;99.90;;;;;;5043496;28;20392;-66
2022/01/19 10:59:03;;;;;;;36.10;18.52;;;8.70;99.90;;;;;;5043711;28;20192;-67
2022/01/19 11:01:38;;;;;;;37.67;18.67;;;8.80;99.90;;;;;;5038781;28;20029;-66
2022/01/19 11:04:22;;;;;;;35.50;18.75;;;9.00;99.90;;;;;;5032110;28;20033;-66
2022/01/19 11:06:49;;;;;;;48.78;23.13;;;9.20;99.90;;;;;;5041503;28;20606;-66
2022/01/19 11:09:18;;;;;;;52.30;24.60;;;9.20;99.90;;;;;;5038180;28;20480;-66
2022/01/19 11:11:44;;;;;;;49.78;24.42;;;9.20;99.90;;;;;;5035598;28;20051;-66
2022/01/19 11:14:15;;;;;;;46.42;22.10;;;9.10;99.90;;;;;;5047321;28;20055;-66
2022/01/19 11:16:42;;;;;;;44.78;21.63;;;9.20;99.90;;;;;;5034677;28;20087;-67
2022/01/19 11:19:09;;;;;;;36.15;17.17;;;9.30;99.90;;;;;;5038059;28;20063;-66
2022/01/19 11:21:57;;;;;;;40.25;17.25;;;9.40;99.90;;;;;;5036982;28;20392;-67
2022/01/19 11:24:34;;;;;;;31.20;16.65;;;9.50;99.90;;;;;;5033621;28;20029;-66
2022/01/19 11:27:01;;;;;;;27.95;15.52;;;9.70;99.90;;;;;;5037141;28;20124;-66
2022/01/19 11:29:29;;;;;;;30.15;15.85;;;9.70;99.90;;;;;;5036795;28;20056;-66
2022/01/19 11:31:57;;;;;;;29.98;15.43;;;9.80;99.90;;;;;;5035372;28;20032;-66
2022/01/19 11:34:45;;;;;;;32.85;17.30;;;9.80;99.90;;;;;;5035920;28;20072;-66
2022/01/19 11:37:11;;;;;;;30.88;16.85;;;9.90;99.90;;;;;;5037850;28;20025;-66
2022/01/19 11:40:00;;;;;;;32.28;17.08;;;10.00;99.60;;;;;;5036663;28;20026;-66
2022/01/19 11:42:25;;;;;;;32.63;17.55;;;10.30;98.30;;;;;;5047221;28;20086;-66
2022/01/19 11:44:51;;;;;;;34.72;18.15;;;10.50;97.40;;;;;;5040737;28;20029;-66
2022/01/19 11:47:24;;;;;;;36.75;19.25;;;10.80;96.00;;;;;;5042351;28;20037;-66
2022/01/19 11:50:00;;;;;;;36.75;18.23;;;10.90;94.90;;;;;;5039829;28;20520;-65
2022/01/19 11:52:48;;;;;;;33.47;18.55;;;10.90;94.40;;;;;;5036826;28;20049;-66
2022/01/19 11:55:26;;;;;;;34.63;17.30;;;10.80;94.60;;;;;;5040138;28;20382;-67
2022/01/19 11:58:16;;;;;;;32.15;18.05;;;10.80;94.80;;;;;;5046368;28;20025;-65
2022/01/19 12:00:46;;;;;;;31.40;17.00;;;11.00;94.60;;;;;;5045229;28;20080;-67
2022/01/19 12:03:23;;;;;;;25.20;14.80;;;11.60;93.00;;;;;;5038545;28;20030;-66
2022/01/19 12:05:52;;;;;;;23.92;13.77;;;12.20;90.90;;;;;;5037177;28;20224;-66
2022/01/19 12:08:34;;;;;;;22.52;12.75;;;12.70;89.20;;;;;;5041640;28;20521;-68
2022/01/19 12:11:01;;;;;;;26.08;14.18;;;13.10;84.30;;;;;;5046815;28;20037;-68
2022/01/19 12:16:49;;;;;;;23.30;12.85;;;13.70;79.50;;;;;;5043401;28;20683;-68
2022/01/19 12:19:16;;;;;;;;;;;14.20;77.20;;;;;;5039666;28;20060;-68
2022/01/19 12:22:05;;;;;;;21.40;13.02;;;14.40;74.20;;;;;;5044193;28;19920;-69
2022/01/19 12:24:44;;;;;;;20.45;12.15;;;14.70;71.90;;;;;;5038951;28;20031;-68
2022/01/19 12:27:16;;;;;;;19.95;12.07;;;15.00;69.00;;;;;;5040159;28;20029;-68
2022/01/19 12:30:11;;;;;;;19.90;11.50;;;14.90;66.50;;;;;;5045639;28;20105;-68
2022/01/19 12:32:49;;;;;;;21.50;12.30;;;14.70;68.10;;;;;;5043430;28;20140;-68
2022/01/19 12:35:34;;;;;;;21.83;12.68;;;14.60;67.80;;;;;;5044863;28;20029;-68
2022/01/19 12:38:02;;;;;;;21.63;12.95;;;15.00;67.00;;;;;;5039408;28;20622;-68
2022/01/19 12:40:43;;;;;;;19.90;12.07;;;17.60;58.60;;;;;;5043395;28;20110;-68
2022/01/19 12:43:13;;;;;;;19.38;12.13;;;19.30;51.90;;;;;;5035394;28;20033;-68
2022/01/19 12:45:48;;;;;;;18.83;11.82;;;21.10;47.40;;;;;;5043239;28;20033;-68
2022/01/19 12:48:32;;;;;;;19.83;12.18;;;23.10;43.30;;;;;;5045087;28;20033;-68
2022/01/19 12:50:58;;;;;;;18.30;11.55;;;24.60;40.70;;;;;;5038029;28;20056;-68
2022/01/19 12:53:25;;;;;;;17.10;11.40;;;25.80;37.30;;;;;;5044411;28;20021;-68
2022/01/19 12:55:57;;;;;;;16.65;11.35;;;25.70;36.50;;;;;;5043581;28;20018;-68
2022/01/19 12:58:30;;;;;;;17.05;12.05;;;24.20;37.80;;;;;;5040884;28;20044;-68
2022/01/19 13:01:00;;;;;;;15.75;10.70;;;23.20;40.10;;;;;;5045623;28;20063;-68
2022/01/19 13:03:35;;;;;;;17.38;11.65;;;23.00;39.30;;;;;;5046346;28;20033;-67
2022/01/19 13:06:04;;;;;;;19.35;11.40;;;22.20;40.90;;;;;;5048722;28;20109;-68
2022/01/19 13:08:50;;;;;;;19.55;11.35;;;20.90;43.70;;;;;;5044835;28;20055;-68
2022/01/19 13:11:25;;;;;;;18.27;10.85;;;19.90;46.20;;;;;;5051055;28;20068;-68
2022/01/19 13:13:56;;;;;;;16.20;11.00;;;18.90;48.10;;;;;;5041034;28;20380;-68
2022/01/19 13:16:37;;;;;;;22.38;10.52;;;18.20;49.40;;;;;;5040654;28;20041;-67
2022/01/19 13:19:05;;;;;;;;;;;17.50;50.70;;;;;;5043376;28;20033;-67
2022/01/19 13:21:32;;;;;;;17.80;10.20;;;16.90;52.00;;;;;;5044209;28;19909;-67
2022/01/19 13:24:00;;;;;;;17.55;10.55;;;16.20;54.00;;;;;;5039568;28;20090;-67
2022/01/19 13:26:38;;;;;;;16.30;10.43;;;15.60;57.00;;;;;;5042215;28;20033;-67
2022/01/19 13:29:19;;;;;;;16.65;9.73;;;15.20;59.40;;;;;;5045703;28;20086;-67
2022/01/19 13:32:01;;;;;;;19.80;9.90;;;14.80;61.10;;;;;;5042226;28;20107;-67
2022/01/19 13:34:31;;;;;;;17.05;9.18;;;14.40;63.20;;;;;;5039239;28;20101;-67
2022/01/19 13:37:00;;;;;;;15.55;7.60;;;14.10;65.30;;;;;;5044602;28;20029;-67
2022/01/19 13:39:28;;;;;;;14.23;7.32;;;13.80;66.90;;;;;;5039448;28;20443;-68
2022/01/19 13:41:57;;;;;;;15.82;7.47;;;13.60;67.40;;;;;;5045515;28;20033;-68
2022/01/19 13:44:26;;;;;;;16.23;7.97;;;13.40;68.60;;;;;;5038222;28;20116;-67
2022/01/19 13:47:12;;;;;;;12.93;6.78;;;13.20;69.90;;;;;;5044053;28;20488;-66
2022/01/19 13:49:39;;;;;;;13.10;6.35;;;13.10;71.60;;;;;;5034364;28;20602;-66
2022/01/19 13:52:05;;;;;;;12.40;5.78;;;12.90;72.20;;;;;;5036944;28;20522;-66
2022/01/19 13:54:36;;;;;;;15.02;5.95;;;12.80;72.40;;;;;;5038119;28;20036;-66
2022/01/19 13:57:01;;;;;;;11.90;5.63;;;12.70;72.70;;;;;;5047660;28;20033;-66
2022/01/19 13:59:27;;;;;;;14.52;5.70;;;12.60;72.70;;;;;;5043175;28;20029;-66
2022/01/19 14:02:02;;;;;;;12.68;5.90;;;12.50;73.90;;;;;;5047928;28;20086;-66
2022/01/19 14:04:34;;;;;;;13.90;5.85;;;12.50;74.20;;;;;;5036549;28;20029;-66
2022/01/19 14:07:12;;;;;;;15.60;5.88;;;12.40;75.00;;;;;;5034065;28;20174;-66
2022/01/19 14:09:38;;;;;;;13.38;6.55;;;12.40;75.70;;;;;;5033845;28;20033;-66
2022/01/19 14:12:16;;;;;;;11.00;5.93;;;12.40;76.90;;;;;;5044178;28;20041;-66
2022/01/19 14:14:48;;;;;;;12.52;6.13;;;12.30;77.60;;;;;;5032939;28;20084;-66
2022/01/19 14:17:28;;;;;;;15.40;5.65;;;12.30;78.60;;;;;;5046621;28;20037;-66
2022/01/19 14:19:55;;;;;;;10.82;5.70;;;12.20;79.40;;;;;;5034968;28;20069;-66